SBOSBO SVQ / LEZL
Speedbird OnlineSpeedbird Online SVQ / LEZL

Sevilla Airport
14:56 15.6°C

Location Sevilla, Spain
Latitude: 37.417999267578125
Longitude: -5.8931097984313965
Web Airport Website | Wikipedia
Altitude 34 Meter / 112 Feet
Distance 1,637 KM / 1,017 Miles
from London.
Time Zone UTC +1 hours (Europe/Madrid)
Codes IATA: SVQ
ICAO: LEZL
Currency £1 equals EUR 1.14
Runways
RunwayLength (m)Surface
093362Asphalt
273362Asphalt
Radio
TypeDescriptionFrequency
APPSevilla Aproximacion125.8
ATISATIS118.175
GNDGND121.7
Live ATC
METAR LEZL 311330Z 05007KT 020V080 CAVOK 16/02 Q1028 NOSIG
TAF TAF LEZL 310800Z 3109/0109 05008KT CAVOK TX16/3115Z TN01/0107Z
Weather As Of 31 Jan 2023 14:56
Description Clear sky
Wind 17 km/h from North-East (50°)
Cloud Cover 0%
Precipitation Rain: none, Snow: none
Sunrise 08:28
Sunset 18:45
Lounges SALA VIP Azahar, Main Terminal
Rotations During the last 90 days there were
77 flights from LGW
2 flights from XRY
77 flights to LGW



Support Speedbird Online

© 2017-2023 Speedbird Online